Time;durP1;ratioP1;P1;durP2;ratioP2;P2;SDS_P1;SDS_P2;PMS_P1;PMS_P2;Temp;Humidity;BMP_temperature;BMP_pressure;BME280_temperature;BME280_humidity;BME280_pressure;Samples;Min_cycle;Max_cycle;Signal;HPM_P1;HPM_P2
2023/12/16 00:00:02;;;;;;;;;16.00;12.00;;;;;10.61;63.11;103814.72;4997655;28;46040;-53
2023/12/16 00:02:27;;;;;;;;;14.33;11.00;;;;;10.64;64.42;103816.41;4998038;28;45306;-51
2023/12/16 00:04:52;;;;;;;;;16.00;11.67;;;;;10.62;64.23;103819.16;4998072;28;45329;-51
2023/12/16 00:07:18;;;;;;;;;18.00;11.00;;;;;10.62;64.35;103810.28;4997353;28;50775;-51
2023/12/16 00:09:43;;;;;;;;;17.67;15.33;;;;;10.61;63.46;103817.41;4997282;28;45362;-52
2023/12/16 00:12:09;;;;;;;;;14.67;14.00;;;;;10.61;63.22;103817.41;4997888;28;45434;-53
2023/12/16 00:14:38;;;;;;;;;18.33;13.00;;;;;10.60;63.51;103814.81;4997800;28;45338;-51
2023/12/16 00:17:04;;;;;;;;;19.00;14.33;;;;;10.57;63.89;103814.94;4997283;28;45394;-53
2023/12/16 00:19:30;;;;;;;;;17.67;13.00;;;;;10.57;64.24;103809.63;4996210;28;45330;-54
2023/12/16 00:21:55;;;;;;;;;12.67;11.00;;;;;10.60;63.42;103810.34;4997836;28;45364;-55
2023/12/16 00:24:21;;;;;;;;;19.67;13.33;;;;;10.60;63.23;103812.16;4997759;28;45364;-55
2023/12/16 00:26:46;;;;;;;;;14.00;12.67;;;;;10.59;63.32;103813.97;4997205;28;47268;-55
2023/12/16 00:29:11;;;;;;;;;14.33;13.33;;;;;10.59;63.43;103811.28;4997461;28;46423;-55
2023/12/16 00:31:37;;;;;;;;;16.00;15.00;;;;;10.60;63.42;103814.81;4997410;28;45350;-54
2023/12/16 00:34:02;;;;;;;;;16.33;12.00;;;;;10.56;63.40;103807.91;4997453;28;45307;-53
2023/12/16 00:36:27;;;;;;;;;17.00;11.67;;;;;10.56;63.59;103811.44;4997360;28;45414;-51
2023/12/16 00:38:53;;;;;;;;;15.00;13.00;;;;;10.55;63.81;103815.03;4997378;28;46974;-52
2023/12/16 00:41:18;;;;;;;;;14.00;10.00;;;;;10.53;63.21;103821.34;4997688;28;45382;-52
2023/12/16 00:43:43;;;;;;;;;14.67;11.67;;;;;10.50;64.34;103817.06;4997499;28;45319;-49
2023/12/16 00:46:08;;;;;;;;;23.67;15.33;;;;;10.48;63.97;103817.09;4997159;28;45409;-49
2023/12/16 00:48:34;;;;;;;;;13.33;11.00;;;;;10.45;63.35;103811.94;4997032;28;45758;-47
2023/12/16 00:51:00;;;;;;;;;16.67;12.00;;;;;10.43;63.83;103813.78;4997276;28;45345;-50
2023/12/16 00:53:25;;;;;;;;;17.67;12.67;;;;;10.42;63.78;103817.41;4997730;28;45489;-49
2023/12/16 00:55:51;;;;;;;;;15.00;10.33;;;;;10.40;63.71;103813.94;4996883;28;45936;-47
2023/12/16 00:58:16;;;;;;;;;15.33;12.00;;;;;10.39;63.72;103817.53;4997144;28;45350;-47
2023/12/16 01:00:42;;;;;;;;;15.00;12.00;;;;;10.39;63.53;103816.66;4997158;28;45477;-43
2023/12/16 01:03:08;;;;;;;;;16.00;11.67;;;;;10.39;63.58;103816.66;4996022;28;45463;-44
2023/12/16 01:05:34;;;;;;;;;14.00;10.67;;;;;10.38;63.75;103813.16;4996801;28;45996;-44
2023/12/16 01:07:59;;;;;;;;;12.67;9.00;;;;;10.37;63.43;103813.22;4996905;28;45331;-45
2023/12/16 01:10:24;;;;;;;;;17.33;11.00;;;;;10.35;63.57;103815.09;4997187;28;45414;-44
2023/12/16 01:12:50;;;;;;;;;12.00;9.00;;;;;10.33;63.53;103801.00;4997000;28;45325;-47
2023/12/16 01:15:15;;;;;;;;;12.00;10.33;;;;;10.32;63.63;103809.91;4996573;28;46150;-50
2023/12/16 01:17:40;;;;;;;;;12.33;9.33;;;;;10.31;64.13;103802.84;4996728;28;45371;-51
2023/12/16 01:20:07;;;;;;;;;13.33;10.33;;;;;10.30;64.63;103801.13;4996861;28;45496;-50
2023/12/16 01:22:32;;;;;;;;;15.00;9.67;;;;;10.28;64.14;103803.88;4997037;28;45806;-50
2023/12/16 01:24:57;;;;;;;;;11.00;11.00;;;;;10.30;64.95;103798.47;4996449;28;45916;-46
2023/12/16 01:27:23;;;;;;;;;14.67;10.00;;;;;10.29;63.79;103802.94;4996302;28;45448;-45
2023/12/16 01:29:48;;;;;;;;;11.67;7.67;;;;;10.29;63.81;103800.28;4996331;28;45351;-44
2023/12/16 01:32:14;;;;;;;;;18.33;11.33;;;;;10.30;63.92;103796.66;4996867;28;45401;-44
2023/12/16 01:34:39;;;;;;;;;12.33;11.00;;;;;10.25;63.73;103793.38;4996348;28;45366;-45
2023/12/16 01:37:04;;;;;;;;;11.00;9.00;;;;;10.28;63.53;103800.31;4996544;28;45495;-44
2023/12/16 01:39:30;;;;;;;;;15.00;8.00;;;;;10.31;63.82;103806.38;4996646;28;45363;-44
2023/12/16 01:41:55;;;;;;;;;13.33;11.00;;;;;10.22;63.99;103796.13;4996802;28;45319;-46
2023/12/16 01:44:20;;;;;;;;;13.33;11.00;;;;;10.30;64.29;103812.63;4994914;28;45453;-46
2023/12/16 01:46:46;;;;;;;;;16.33;12.00;;;;;10.31;64.20;103803.72;4996164;28;45522;-45
2023/12/16 01:49:12;;;;;;;;;14.00;11.00;;;;;10.31;64.05;103814.34;4996526;28;45417;-48
2023/12/16 01:51:38;;;;;;;;;13.33;9.00;;;;;10.20;63.93;103795.34;4996528;28;45375;-46
2023/12/16 01:54:04;;;;;;;;;11.00;10.00;;;;;10.30;63.43;103812.63;4996082;28;46056;-45
2023/12/16 01:56:30;;;;;;;;;12.67;10.33;;;;;10.31;63.53;103824.13;4996183;28;45442;-46
2023/12/16 01:58:56;;;;;;;;;8.33;8.33;;;;;10.33;63.18;103825.81;4996220;28;45405;-46
2023/12/16 02:01:22;;;;;;;;;11.67;8.33;;;;;10.35;63.12;103823.06;4996314;28;45539;-48
2023/12/16 02:03:47;;;;;;;;;10.67;10.00;;;;;10.35;62.98;103825.72;4996107;28;45412;-47
2023/12/16 02:06:14;;;;;;;;;5.67;1.00;;;;;10.34;62.83;103826.66;4996020;28;45250;-43
2023/12/16 02:08:40;;;;;;;;;15.00;11.00;;;;;10.32;62.67;103825.84;4996112;28;45428;-45
2023/12/16 02:11:10;;;;;;;;;8.33;7.67;;;;;10.28;63.19;103834.91;4996077;28;45480;-46
2023/12/16 02:13:38;;;;;;;;;11.00;7.00;;;;;10.26;62.71;103828.81;4995993;28;46207;-49
2023/12/16 02:16:03;;;;;;;;;9.00;6.00;;;;;10.22;63.06;103836.03;4995731;28;45560;-46
2023/12/16 02:18:29;;;;;;;;;12.00;8.00;;;;;10.19;63.07;103834.34;4996080;28;45375;-45
2023/12/16 02:20:54;;;;;;;;;14.00;9.33;;;;;10.17;62.92;103830.91;4996247;28;45833;-54
2023/12/16 02:23:19;;;;;;;;;8.00;7.00;;;;;10.13;62.88;103831.97;4995769;28;45431;-44
2023/12/16 02:25:45;;;;;;;;;10.00;8.00;;;;;10.08;63.03;103823.34;4995804;28;45331;-45
2023/12/16 02:28:11;;;;;;;;;9.33;7.67;;;;;10.03;63.06;103811.16;4995770;28;45365;-44
2023/12/16 02:30:36;;;;;;;;;9.33;8.67;;;;;10.05;63.26;103823.47;4994779;28;45372;-48
2023/12/16 02:33:02;;;;;;;;;11.33;8.33;;;;;10.00;63.71;103823.69;4995785;28;45854;-44
2023/12/16 02:35:28;;;;;;;;;10.67;7.33;;;;;9.95;63.05;103816.84;4995736;28;45443;-45
2023/12/16 02:37:53;;;;;;;;;11.33;7.33;;;;;9.92;63.56;103823.16;4996023;28;45772;-46
2023/12/16 02:40:18;;;;;;;;;11.00;9.33;;;;;9.89;63.78;103820.63;4998371;28;45461;-45
2023/12/16 02:42:44;;;;;;;;;11.67;8.33;;;;;9.85;63.66;103834.97;4999068;28;45333;-44
2023/12/16 02:45:09;;;;;;;;;12.67;10.00;;;;;9.73;64.20;103817.78;4997728;28;45469;-43
2023/12/16 02:47:34;;;;;;;;;13.33;11.00;;;;;9.77;64.03;103834.44;4999085;28;45345;-42
2023/12/16 02:50:00;;;;;;;;;12.00;8.00;;;;;9.73;64.22;103831.09;4999265;28;45505;-44
2023/12/16 02:52:25;;;;;;;;;15.00;8.33;;;;;9.67;64.91;103831.31;4998959;28;45456;-43
2023/12/16 02:54:51;;;;;;;;;15.33;10.67;;;;;9.69;65.24;103837.47;4998869;28;45502;-45
2023/12/16 02:57:16;;;;;;;;;8.67;7.33;;;;;9.65;64.76;103830.53;4998906;28;45331;-42
2023/12/16 02:59:41;;;;;;;;;13.67;11.00;;;;;9.64;65.19;103839.41;4999126;28;45312;-47
2023/12/16 03:02:07;;;;;;;;;17.00;10.00;;;;;9.60;64.94;103842.28;4998582;28;45985;-44
2023/12/16 03:04:32;;;;;;;;;15.67;10.33;;;;;9.60;64.56;103843.13;4998595;28;47125;-45
2023/12/16 03:06:58;;;;;;;;;13.67;10.33;;;;;9.59;64.82;103845.88;4998975;28;45429;-47
2023/12/16 03:09:23;;;;;;;;;15.67;10.67;;;;;9.58;64.26;103852.97;4999150;28;45355;-45
2023/12/16 03:11:49;;;;;;;;;13.67;9.67;;;;;9.57;64.32;103850.41;4998488;28;47109;-44
2023/12/16 03:14:16;;;;;;;;;13.67;11.00;;;;;9.55;64.66;103853.09;4998560;28;45525;-44
2023/12/16 03:16:41;;;;;;;;;11.67;6.00;;;;;9.54;64.76;103862.00;4998583;28;45429;-46
2023/12/16 03:19:07;;;;;;;;;15.67;13.33;;;;;9.50;65.04;103863.06;4998903;28;45398;-46
2023/12/16 03:21:32;;;;;;;;;14.00;10.00;;;;;9.50;64.94;103871.03;4998394;28;46330;-44
2023/12/16 03:23:57;;;;;;;;;15.00;9.33;;;;;9.47;64.71;103864.03;4998444;28;45353;-46
2023/12/16 03:26:23;;;;;;;;;11.00;9.00;;;;;9.46;64.76;103864.13;5013714;28;45287;-43
2023/12/16 03:28:48;;;;;;;;;10.33;8.00;;;;;9.45;65.07;103871.22;4998548;28;45381;-44
2023/12/16 03:31:14;;;;;;;;;14.00;10.00;;;;;9.44;65.18;103864.19;4997038;28;47296;-44
2023/12/16 03:33:39;;;;;;;;;11.67;9.33;;;;;9.40;65.53;103861.72;4998446;28;45508;-45
2023/12/16 03:36:07;;;;;;;;;12.00;9.33;;;;;9.41;64.92;103868.75;4998271;28;45308;-45
2023/12/16 03:38:33;;;;;;;;;11.00;9.33;;;;;9.39;65.04;103865.28;4998517;28;45440;-45
2023/12/16 03:40:58;;;;;;;;;10.67;6.67;;;;;9.39;64.85;103873.25;4998074;28;46266;-48
2023/12/16 03:43:23;;;;;;;;;14.67;11.00;;;;;9.39;64.54;103863.50;4998425;28;45328;-43
2023/12/16 03:45:48;;;;;;;;;11.67;9.67;;;;;9.40;64.47;103856.41;4997953;28;45432;-45
2023/12/16 03:48:14;;;;;;;;;10.33;10.33;;;;;9.41;64.51;103853.69;4997932;28;45458;-49
2023/12/16 03:50:39;;;;;;;;;14.33;11.00;;;;;9.45;64.92;103855.28;4997434;28;45430;-46
2023/12/16 03:53:05;;;;;;;;;10.67;9.67;;;;;9.33;64.68;103817.72;4996685;28;45413;-47
2023/12/16 03:55:30;;;;;;;;;8.67;6.33;;;;;9.56;64.48;103857.47;4998114;28;45432;-45
2023/12/16 03:57:55;;;;;;;;;11.00;7.33;;;;;9.62;64.33;103851.06;4998340;28;45390;-46
2023/12/16 04:00:21;;;;;;;;;15.00;8.00;;;;;9.65;64.43;103859.78;4997864;28;46231;-45
2023/12/16 04:02:46;;;;;;;;;6.00;5.67;;;;;9.61;64.37;103847.53;4997901;28;45847;-44
2023/12/16 04:05:12;;;;;;;;;6.00;6.00;;;;;9.68;64.80;103850.78;4997973;28;45211;-45
2023/12/16 04:07:38;;;;;;;;;12.67;11.33;;;;;9.73;64.29;103856.78;4998045;28;45439;-45
2023/12/16 04:10:04;;;;;;;;;9.00;8.67;;;;;9.77;64.08;103855.72;4997588;28;46005;-44
2023/12/16 04:12:29;;;;;;;;;9.00;7.00;;;;;9.83;64.27;103859.94;4997542;28;45775;-46
2023/12/16 04:14:55;;;;;;;;;14.00;9.67;;;;;9.82;63.60;103848.44;4998074;28;45438;-45
2023/12/16 04:17:20;;;;;;;;;11.33;7.00;;;;;9.90;63.66;103856.94;4997698;28;45448;-42
2023/12/16 04:19:53;;;;;;;;;11.00;10.00;;;;;9.93;63.92;103850.59;4997654;28;46306;-43
2023/12/16 04:22:19;;;;;;;;;10.67;7.67;;;;;9.96;63.64;103850.47;4997539;28;45212;-45
2023/12/16 04:24:48;;;;;;;;;9.00;6.00;;;;;9.98;63.79;103848.59;4997562;28;45420;-44
2023/12/16 04:27:13;;;;;;;;;14.67;10.67;;;;;9.93;63.69;103840.84;4997477;28;45413;-44
2023/12/16 04:29:39;;;;;;;;;14.67;11.00;;;;;9.98;64.13;103848.59;4997324;28;45437;-44
2023/12/16 04:32:04;;;;;;;;;15.67;15.00;;;;;9.90;64.85;103835.66;4997219;28;45297;-47
2023/12/16 04:34:29;;;;;;;;;17.33;13.33;;;;;9.88;65.09;103840.16;4997290;28;45460;-46
2023/12/16 04:36:55;;;;;;;;;12.00;12.00;;;;;9.88;65.06;103844.63;4997591;28;45407;-45
2023/12/16 04:39:20;;;;;;;;;14.33;11.00;;;;;9.89;65.24;103841.03;4996104;28;47284;-45
2023/12/16 04:41:45;;;;;;;;;12.33;10.67;;;;;9.87;64.96;103842.91;4997255;28;45425;-45
2023/12/16 04:44:11;;;;;;;;;11.67;11.67;;;;;9.82;64.58;103836.91;4997235;28;45354;-46
2023/12/16 04:46:36;;;;;;;;;18.33;14.67;;;;;9.82;65.28;103842.22;4997325;28;45600;-44
2023/12/16 04:49:02;;;;;;;;;18.00;12.00;;;;;9.80;65.14;103847.63;4997079;28;45448;-45
2023/12/16 04:51:27;;;;;;;;;14.33;12.00;;;;;9.78;65.50;103849.50;4997401;28;45379;-44
2023/12/16 04:53:53;;;;;;;;;17.67;15.00;;;;;9.68;65.64;103826.88;4997231;28;45395;-46
2023/12/16 04:56:18;;;;;;;;;15.00;10.33;;;;;9.72;65.98;103836.44;4997392;28;45435;-46
2023/12/16 04:58:44;;;;;;;;;17.33;13.00;;;;;9.70;65.98;103830.34;4996889;28;46154;-45
2023/12/16 05:01:09;;;;;;;;;19.00;15.33;;;;;9.75;66.38;103842.50;4997078;28;45327;-55
2023/12/16 05:03:35;;;;;;;;;17.33;14.33;;;;;9.79;65.89;103839.72;4995928;28;45406;-46
2023/12/16 05:06:00;;;;;;;;;19.00;17.00;;;;;9.73;66.72;103832.84;4997092;28;45366;-55
2023/12/16 05:08:25;;;;;;;;;24.67;17.00;;;;;9.78;66.41;103841.50;4996815;28;47180;-44
2023/12/16 05:10:51;;;;;;;;;19.67;16.00;;;;;9.75;66.47;103841.63;4996774;28;45368;-54
2023/12/16 05:13:16;;;;;;;;;18.67;15.67;;;;;9.80;66.86;103844.09;4996956;28;45246;-46
2023/12/16 05:15:42;;;;;;;;;22.33;18.33;;;;;9.78;66.87;103846.84;4997137;28;45420;-49
2023/12/16 05:18:08;;;;;;;;;26.67;21.00;;;;;9.73;67.70;103838.16;4996657;28;46122;-54
2023/12/16 05:20:34;;;;;;;;;28.00;20.67;;;;;9.66;67.11;103832.25;4996709;28;45379;-51
2023/12/16 05:22:59;;;;;;;;;27.33;25.33;;;;;9.63;67.79;103836.84;4996885;28;45715;-47
2023/12/16 05:25:29;;;;;;;;;31.00;26.00;;;;;9.57;68.14;103831.78;4996863;28;45289;-48
2023/12/16 05:27:55;;;;;;;;;25.33;22.67;;;;;9.47;67.75;103813.56;4996525;28;46773;-51
2023/12/16 05:30:20;;;;;;;;;23.00;19.33;;;;;9.53;67.20;103835.50;4996527;28;45330;-47
2023/12/16 05:32:45;;;;;;;;;34.00;22.33;;;;;9.41;67.79;103837.75;4996258;28;45512;-44
2023/12/16 05:35:11;;;;;;;;;24.00;22.00;;;;;9.43;68.03;103835.00;4996735;28;45496;-45
2023/12/16 05:37:36;;;;;;;;;30.50;23.50;;;;;9.39;68.31;103828.94;4996206;28;45993;-45
2023/12/16 05:40:01;;;;;;;;;33.00;27.75;;;;;9.33;68.77;103823.91;4996510;28;45425;-49
2023/12/16 05:42:27;;;;;;;;;32.50;27.00;;;;;9.26;69.62;103819.75;4996672;28;45208;-49
2023/12/16 05:44:52;;;;;;;;;31.67;26.33;;;;;9.24;69.56;103829.59;4996614;28;45403;-49
2023/12/16 05:47:17;;;;;;;;;29.00;25.75;;;;;9.23;69.70;103838.50;4996076;28;46131;-46
2023/12/16 05:49:43;;;;;;;;;34.50;27.50;;;;;9.22;69.69;103837.59;4996195;28;45377;-45
2023/12/16 05:52:09;;;;;;;;;27.75;23.00;;;;;9.14;69.62;103820.25;4996429;28;45369;-50
2023/12/16 05:54:34;;;;;;;;;38.00;30.25;;;;;9.15;69.74;103824.66;4996480;28;45451;-47
2023/12/16 05:57:00;;;;;;;;;36.00;26.25;;;;;9.16;68.85;103829.03;4995442;28;46260;-49
2023/12/16 05:59:25;;;;;;;;;34.00;21.67;;;;;9.08;69.02;103829.34;4996117;28;45485;-51
2023/12/16 06:01:51;;;;;;;;;29.33;22.33;;;;;9.02;68.77;103839.34;4996132;28;45391;-48
2023/12/16 06:04:16;;;;;;;;;27.67;23.33;;;;;8.98;69.22;103839.47;4996190;28;45651;-47
2023/12/16 06:06:41;;;;;;;;;30.25;25.75;;;;;8.96;69.62;103836.00;4995831;28;45609;-49
2023/12/16 06:09:07;;;;;;;;;33.50;28.25;;;;;8.94;69.47;103837.88;4995929;28;45442;-49
2023/12/16 06:11:32;;;;;;;;;30.75;28.00;;;;;8.94;70.03;103837.00;4996052;28;45310;-52
2023/12/16 06:13:58;;;;;;;;;33.25;29.00;;;;;8.93;70.79;103844.13;4996569;28;45865;-48
2023/12/16 06:16:23;;;;;;;;;36.00;25.75;;;;;8.90;70.06;103838.91;4999069;28;54676;-51
2023/12/16 06:18:49;;;;;;;;;30.50;27.00;;;;;8.88;70.48;103838.09;4999332;28;45331;-50
2023/12/16 06:21:14;;;;;;;;;30.50;26.50;;;;;8.86;70.67;103839.09;4999270;28;45458;-50
2023/12/16 06:23:40;;;;;;;;;25.00;25.00;;;;;8.82;71.14;103840.13;4999591;28;45272;-48
2023/12/16 06:26:05;;;;;;;;;36.00;32.00;;;;;8.79;70.83;103845.56;4999284;28;45757;-54
2023/12/16 06:28:30;;;;;;;;;31.00;29.50;;;;;8.74;70.91;103851.91;4999137;28;45350;-54
2023/12/16 06:30:56;;;;;;;;;31.50;26.50;;;;;8.71;70.94;103844.06;4999487;28;45437;-51
2023/12/16 06:33:24;;;;;;;;;37.50;30.00;;;;;8.73;71.19;103854.63;4999364;28;45571;-50
2023/12/16 06:35:50;;;;;;;;;32.00;28.00;;;;;8.70;71.47;103852.09;4998822;28;46097;-49
2023/12/16 06:38:15;;;;;;;;;37.00;27.50;;;;;8.69;71.53;103856.53;4999177;28;45784;-47
2023/12/16 06:40:41;;;;;;;;;32.00;25.25;;;;;8.68;71.09;103862.78;4999150;28;45412;-44
2023/12/16 06:43:07;;;;;;;;;30.25;27.25;;;;;8.64;71.33;103854.97;4999381;28;45469;-43
2023/12/16 06:45:33;;;;;;;;;36.75;27.50;;;;;8.63;71.12;103864.69;4998934;28;46207;-45
2023/12/16 06:47:58;;;;;;;;;41.00;30.50;;;;;8.64;70.64;103866.47;4998852;28;45420;-46
2023/12/16 06:50:24;;;;;;;;;42.75;30.75;;;;;8.61;71.13;103861.25;4999270;28;45347;-44
2023/12/16 06:52:49;;;;;;;;;28.50;28.50;;;;;8.63;71.26;103872.66;4999194;28;45220;-45
2023/12/16 06:55:15;;;;;;;;;33.00;28.00;;;;;8.64;71.83;103874.41;4998841;28;46219;-48
2023/12/16 06:57:40;;;;;;;;;32.50;28.00;;;;;8.67;71.38;103873.41;4998918;28;45479;-47
2023/12/16 07:00:06;;;;;;;;;36.75;29.50;;;;;8.69;71.31;103882.22;4998933;28;45160;-48
2023/12/16 07:02:32;;;;;;;;;35.25;28.75;;;;;8.68;71.33;103878.69;4998894;28;45518;-48
2023/12/16 07:04:57;;;;;;;;;33.25;27.50;;;;;8.68;71.37;103880.44;4998539;28;46371;-45
2023/12/16 07:07:25;;;;;;;;;37.75;32.50;;;;;8.59;71.50;103868.41;4998689;28;45298;-50
2023/12/16 07:09:50;;;;;;;;;32.25;28.75;;;;;8.59;72.34;103881.66;4998927;28;45398;-49
2023/12/16 07:12:15;;;;;;;;;35.75;25.50;;;;;8.55;71.79;103880.03;4998858;28;45466;-51
2023/12/16 07:14:41;;;;;;;;;39.50;32.00;;;;;8.51;72.64;103881.06;4998394;28;46035;-45
2023/12/16 07:17:06;;;;;;;;;34.25;29.25;;;;;8.48;71.90;103881.22;4998425;28;45428;-53
2023/12/16 07:19:31;;;;;;;;;41.75;35.50;;;;;8.41;72.68;103882.34;4998133;28;47297;-53
2023/12/16 07:21:58;;;;;;;;;36.00;30.50;;;;;8.36;72.64;103895.75;4998837;28;45353;-54
2023/12/16 07:24:23;;;;;;;;;30.25;29.00;;;;;8.29;72.61;103896.03;4998496;28;45581;-53
2023/12/16 07:26:49;;;;;;;;;41.00;33.25;;;;;8.20;72.44;103883.94;4997361;28;45442;-55
2023/12/16 07:29:14;;;;;;;;;42.00;33.75;;;;;8.11;72.98;103893.09;4998539;28;45153;-51
2023/12/16 07:31:40;;;;;;;;;33.00;33.00;;;;;8.06;73.11;103892.41;4998703;28;45598;-48
2023/12/16 07:34:06;;;;;;;;;37.25;31.50;;;;;7.98;73.87;103886.50;4997680;28;47311;-47
2023/12/16 07:36:31;;;;;;;;;39.25;32.00;;;;;7.97;73.05;103895.38;4998192;28;45424;-53
2023/12/16 07:38:57;;;;;;;;;35.00;29.50;;;;;7.94;74.29;103896.34;4998511;28;46341;-49
2023/12/16 07:41:24;;;;;;;;;38.25;31.50;;;;;7.89;73.71;103902.72;4998419;28;45445;-52
2023/12/16 07:43:49;;;;;;;;;35.25;31.25;;;;;7.86;74.16;103911.63;4997907;28;46967;-48
2023/12/16 07:46:15;;;;;;;;;34.25;28.00;;;;;7.85;74.68;103911.69;4998045;28;45460;-54
2023/12/16 07:48:42;;;;;;;;;34.75;31.75;;;;;7.81;74.45;103925.97;4997999;28;45386;-55
2023/12/16 07:51:14;;;;;;;;;39.75;34.00;;;;;7.63;74.81;103901.81;4996979;28;45387;-54
2023/12/16 07:53:40;;;;;;;;;43.50;34.00;;;;;7.62;75.05;103915.09;4997853;28;45478;-44
2023/12/16 07:56:06;;;;;;;;;36.75;32.75;;;;;7.67;74.33;103923.78;4997933;28;45433;-45
2023/12/16 07:58:31;;;;;;;;;39.25;35.00;;;;;7.65;75.24;103928.25;4997944;28;45395;-44
2023/12/16 08:00:56;;;;;;;;;32.50;30.75;;;;;7.64;74.89;103930.03;4998464;28;45298;-46
2023/12/16 08:03:21;;;;;;;;;36.00;31.75;;;;;7.63;75.30;103932.72;4998057;28;45465;-45
2023/12/16 08:05:47;;;;;;;;;45.75;35.00;;;;;7.62;75.39;103937.13;4997729;28;45350;-49
2023/12/16 08:08:12;;;;;;;;;42.00;34.50;;;;;7.62;74.42;103947.72;4997832;28;45354;-51
2023/12/16 08:10:37;;;;;;;;;41.25;35.00;;;;;7.62;74.95;103938.94;4997818;28;45378;-48
2023/12/16 08:13:03;;;;;;;;;38.25;35.50;;;;;7.59;74.72;103939.91;4997598;28;46080;-51
2023/12/16 08:15:28;;;;;;;;;37.25;31.50;;;;;7.55;74.77;103948.00;4996484;28;45433;-49
2023/12/16 08:17:53;;;;;;;;;34.50;33.50;;;;;7.61;75.16;103939.84;4997267;28;45308;-50
2023/12/16 08:20:19;;;;;;;;;49.25;37.50;;;;;7.59;74.30;103944.34;4996850;28;45392;-53
2023/12/16 08:22:44;;;;;;;;;39.75;35.00;;;;;7.61;74.78;103947.78;4995060;28;46069;-54
2023/12/16 08:25:09;;;;;;;;;30.25;26.75;;;;;7.61;74.10;103950.44;4996957;28;45190;-49
2023/12/16 08:27:35;;;;;;;;;35.00;31.50;;;;;7.58;74.05;103948.75;4997543;28;45674;-50
2023/12/16 08:30:00;;;;;;;;;47.50;36.00;;;;;7.58;73.74;103954.03;4997627;28;45370;-51
2023/12/16 08:32:25;;;;;;;;;40.50;38.75;;;;;7.57;74.55;103954.09;4997093;28;45591;-52
2023/12/16 08:34:51;;;;;;;;;39.75;34.75;;;;;7.59;74.13;103961.09;4997059;28;45339;-51
2023/12/16 08:37:16;;;;;;;;;42.25;33.50;;;;;7.61;74.94;103959.25;4997096;28;45435;-52
2023/12/16 08:39:41;;;;;;;;;44.25;37.50;;;;;7.62;74.08;103965.41;4997395;28;45641;-52
2023/12/16 08:42:07;;;;;;;;;44.25;38.25;;;;;7.59;75.10;103961.09;4996970;28;45960;-50
2023/12/16 08:44:32;;;;;;;;;52.25;38.00;;;;;7.61;74.55;103961.91;4995912;28;45550;-48
2023/12/16 08:46:57;;;;;;;;;41.75;33.25;;;;;7.65;75.28;103970.63;4996905;28;45394;-50
2023/12/16 08:49:22;;;;;;;;;41.50;35.00;;;;;7.53;74.21;103941.88;4997045;28;45495;-48
2023/12/16 08:51:48;;;;;;;;;46.50;38.50;;;;;7.67;75.02;103971.47;4995548;28;48072;-50
2023/12/16 08:54:14;;;;;;;;;42.75;31.75;;;;;7.68;73.72;103974.06;4997015;28;45462;-48
2023/12/16 08:56:40;;;;;;;;;46.50;36.00;;;;;7.70;73.88;103982.81;4996971;28;45545;-51
2023/12/16 08:59:05;;;;;;;;;37.50;30.75;;;;;7.74;74.24;103988.88;4997204;28;45457;-51
2023/12/16 09:01:32;;;;;;;;;41.00;38.25;;;;;7.79;74.54;103989.59;4995670;28;45459;-51
2023/12/16 09:03:58;;;;;;;;;38.50;34.25;;;;;7.83;73.44;103990.38;4996649;28;45404;-49
2023/12/16 09:06:24;;;;;;;;;49.00;35.50;;;;;7.86;74.03;103977.88;4996607;28;45303;-48
2023/12/16 09:08:50;;;;;;;;;46.75;37.75;;;;;7.94;73.31;103986.47;4996869;28;45191;-48
2023/12/16 09:11:16;;;;;;;;;37.50;35.00;;;;;8.12;74.10;103973.50;4996356;28;47221;-48
2023/12/16 09:13:42;;;;;;;;;81.75;58.00;;;;;8.59;72.73;103973.69;4996437;28;45373;-49
2023/12/16 09:16:07;;;;;;;;;53.50;38.00;;;;;8.92;71.85;103971.59;4996502;28;45353;-50
2023/12/16 09:18:36;;;;;;;;;47.00;34.50;;;;;9.21;71.05;103968.69;4996956;28;45442;-50
2023/12/16 09:21:01;;;;;;;;;41.25;36.25;;;;;9.48;69.71;103958.81;4996396;28;45473;-51
2023/12/16 09:23:27;;;;;;;;;39.25;37.75;;;;;9.80;68.96;103971.72;4996420;28;45427;-51
2023/12/16 09:25:53;;;;;;;;;36.25;30.25;;;;;10.23;69.41;103963.66;4996415;28;45350;-48
2023/12/16 09:28:18;;;;;;;;;49.25;41.00;;;;;10.53;66.94;103957.97;4996417;28;45406;-49
2023/12/16 09:30:43;;;;;;;;;50.25;40.75;;;;;11.19;65.50;103957.63;4996136;28;45423;-51
2023/12/16 09:33:09;;;;;;;;;40.25;31.00;;;;;12.06;63.69;103955.22;4995059;28;45476;-49
2023/12/16 09:35:34;;;;;;;;;45.50;37.50;;;;;13.06;60.80;103965.03;4992789;28;45401;-49
2023/12/16 09:37:59;;;;;;;;;46.50;39.00;;;;;14.02;59.43;103958.66;4995850;28;45302;-49
2023/12/16 09:40:26;;;;;;;;;46.75;38.25;;;;;14.82;54.18;103956.53;4996045;28;46060;-48
2023/12/16 09:42:52;;;;;;;;;53.00;36.00;;;;;15.56;54.45;103964.25;4996028;28;45345;-47
2023/12/16 09:45:17;;;;;;;;;37.33;34.33;;;;;16.08;50.14;103960.78;4996417;28;45382;-50
2023/12/16 09:47:44;;;;;;;;;36.67;34.67;;;;;16.53;52.16;103974.72;4996192;28;45328;-52
2023/12/16 09:50:10;;;;;;;;;47.67;36.67;;;;;16.87;50.67;103969.69;4995129;28;46145;-52
2023/12/16 09:52:35;;;;;;;;;44.33;37.00;;;;;17.39;48.55;103972.13;4995789;28;45913;-51
2023/12/16 09:55:01;;;;;;;;;41.67;35.33;;;;;17.94;47.91;103968.00;4995997;28;45367;-49
2023/12/16 09:57:28;;;;;;;;;37.33;32.67;;;;;18.36;46.18;103963.00;4996439;28;45322;-50
2023/12/16 09:59:56;;;;;;;;;41.67;36.67;;;;;18.82;45.13;103969.31;4995948;28;46296;-52
2023/12/16 10:02:27;;;;;;;;;50.33;36.67;;;;;19.20;45.63;103963.53;4995912;28;45415;-54
2023/12/16 10:04:56;;;;;;;;;44.00;36.00;;;;;19.57;43.56;103965.91;4995584;28;45311;-50
2023/12/16 10:07:21;;;;;;;;;43.33;36.00;;;;;19.87;42.57;103966.06;4995938;28;45362;-53
2023/12/16 10:09:47;;;;;;;;;41.67;34.67;;;;;20.16;41.60;103957.31;4995528;28;45275;-52
2023/12/16 10:12:13;;;;;;;;;43.33;34.67;;;;;20.06;41.80;103954.53;4995703;28;45343;-53
2023/12/16 10:14:48;;;;;;;;;44.67;34.00;;;;;19.77;44.30;103956.16;4995664;28;45537;-51
2023/12/16 10:17:19;;;;;;;;;38.67;33.00;;;;;20.11;41.51;103965.81;4996018;28;45404;-53
2023/12/16 10:19:45;;;;;;;;;48.00;35.67;;;;;20.36;40.51;103952.88;4995558;28;46877;-52
2023/12/16 10:22:16;;;;;;;;;34.67;28.33;;;;;20.41;40.32;103956.91;4995445;28;45377;-53
2023/12/16 10:24:41;;;;;;;;;37.67;34.00;;;;;20.40;40.49;103952.50;4995810;28;45445;-50
2023/12/16 10:27:08;;;;;;;;;41.67;36.00;;;;;20.10;40.15;103955.13;4995774;28;45714;-52
2023/12/16 10:29:33;;;;;;;;;35.33;33.33;;;;;19.20;41.61;103939.25;4994412;28;46379;-54
2023/12/16 10:31:59;;;;;;;;;42.67;35.33;;;;;18.05;44.41;103959.13;4995608;28;45330;-50
2023/12/16 10:34:32;;;;;;;;;42.33;36.00;;;;;17.26;45.64;103954.31;4995607;28;45224;-52
2023/12/16 10:37:04;;;;;;;;;49.33;37.67;;;;;16.87;47.34;103940.09;4995956;28;45384;-51
2023/12/16 10:39:30;;;;;;;;;46.33;37.00;;;;;17.50;46.37;103940.88;4995612;28;45381;-53
2023/12/16 10:41:55;;;;;;;;;50.00;37.67;;;;;18.25;44.33;103943.28;4995341;28;45333;-50
2023/12/16 10:44:20;;;;;;;;;44.67;38.67;;;;;18.61;44.60;103950.28;4995551;28;45469;-50
2023/12/16 10:46:51;;;;;;;;;44.00;36.00;;;;;18.82;43.74;103953.13;4995574;28;45401;-50
2023/12/16 10:49:17;;;;;;;;;44.67;36.00;;;;;18.31;43.99;103940.09;4995177;28;46397;-51
2023/12/16 10:51:44;;;;;;;;;38.00;36.00;;;;;17.68;45.09;103937.66;4995198;28;45341;-53
2023/12/16 10:54:17;;;;;;;;;39.33;36.00;;;;;18.17;44.24;103933.09;4995507;28;45469;-52
2023/12/16 10:56:58;;;;;;;;;40.67;36.67;;;;;18.36;43.54;103932.50;4995631;28;45453;-53
2023/12/16 10:59:33;;;;;;;;;44.33;38.00;;;;;18.09;44.71;103930.97;4995197;28;46167;-54
2023/12/16 11:02:02;;;;;;;;;39.00;35.33;;;;;18.12;44.02;103928.06;4997018;28;45432;-51
2023/12/16 11:04:37;;;;;;;;;45.00;36.33;;;;;18.51;43.40;103931.28;4999009;28;45259;-53
2023/12/16 11:07:02;;;;;;;;;41.33;35.67;;;;;18.73;42.32;103925.06;4998632;28;45322;-52
2023/12/16 11:09:28;;;;;;;;;37.67;32.00;;;;;18.59;42.77;103917.22;4998504;28;46173;-52